Time;durP1;ratioP1;P1;durP2;ratioP2;P2;SDS_P1;SDS_P2;PMS_P1;PMS_P2;Temp;Humidity;BMP_temperature;BMP_pressure;BME280_temperature;BME280_humidity;BME280_pressure;Samples;Min_cycle;Max_cycle;Signal;HPM_P1;HPM_P2
2023/07/14 00:04:34;;;;;;;9.90;2.67;;;;;;;;;;5099513;22;20587;-61
2023/07/14 00:07:00;;;;;;;4.77;3.10;;;;;;;;;;5054060;28;20425;-61
2023/07/14 00:09:29;;;;;;;2.50;2.40;;;;;;;;;;5037842;28;20456;-61
2023/07/14 00:11:55;;;;;;;4.03;2.90;;;;;;;;;;5034273;28;20819;-61
2023/07/14 00:14:21;;;;;;;3.90;3.07;;;;;;;;;;5034344;28;20447;-61
2023/07/14 00:16:47;;;;;;;3.17;2.60;;;;;;;;;;5034050;28;20501;-61
2023/07/14 00:19:15;;;;;;;3.10;2.83;;;;;;;;;;5033920;28;20996;-61
2023/07/14 00:21:41;;;;;;;6.80;2.80;;;;;;;;;;5034133;28;20409;-61
2023/07/14 00:24:14;;;;;;;3.07;2.70;;;;;;;;;;5032777;28;20433;-61
2023/07/14 00:26:41;;;;;;;5.70;2.67;;;;;;;;;;5033961;28;20918;-61
2023/07/14 00:29:27;;;;;;;4.60;2.63;;;;;;;;;;5033978;28;20801;-61
2023/07/14 00:31:53;;;;;;;5.03;2.70;;;;;;;;;;5023309;28;20779;-61
2023/07/14 00:34:19;;;;;;;5.37;2.83;;;;;;;;;;5032993;28;20428;-61
2023/07/14 00:36:45;;;;;;;10.10;3.00;;;;;;;;;;5033311;28;20425;-61
2023/07/14 00:39:11;;;;;;;6.87;3.50;;;;;;;;;;5033952;28;20507;-61
2023/07/14 00:41:37;;;;;;;2.80;2.70;;;;;;;;;;5033423;28;20446;-61
2023/07/14 00:44:06;;;;;;;3.10;2.90;;;;;;;;;;5033457;28;20409;-61
2023/07/14 00:46:33;;;;;;;3.23;2.60;;;;;;;;;;5033352;28;20420;-61
2023/07/14 00:49:14;;;;;;;3.93;2.90;;;;;;;;;;5033618;28;20444;-61
2023/07/14 00:51:40;;;;;;;3.40;3.20;;;;;;;;;;5033509;28;20416;-61
2023/07/14 00:54:19;;;;;;;3.63;3.33;;;;;;;;;;5032982;28;20532;-61
2023/07/14 00:56:49;;;;;;;4.80;3.80;;;;;;;;;;5031973;28;20436;-61
2023/07/14 00:59:17;;;;;;;3.23;2.70;;;;;;;;;;5032963;28;21036;-61
2023/07/14 01:02:02;;;;;;;3.90;3.30;;;;;;;;;;5033225;28;20922;-61
2023/07/14 01:04:30;;;;;;;3.33;3.10;;;;;;;;;;5033257;28;20433;-61
2023/07/14 01:06:56;;;;;;;3.20;3.03;;;;;;;;;;5033313;28;20965;-61
2023/07/14 01:09:22;;;;;;;3.90;3.17;;;;;;;;;;5048543;28;20835;-61
2023/07/14 01:11:51;;;;;;;5.40;3.30;;;;;;;;;;5052795;28;20423;-61
2023/07/14 01:14:29;;;;;;;3.53;3.30;;;;;;;;;;5052803;28;20418;-61
2023/07/14 01:16:55;;;;;;;3.80;3.50;;;;;;;;;;5018884;28;20845;-61
2023/07/14 01:19:30;;;;;;;6.43;3.40;;;;;;;;;;5052781;28;20458;-61
2023/07/14 01:22:02;;;;;;;3.47;3.20;;;;;;;;;;5052931;28;20414;-61
2023/07/14 01:24:31;;;;;;;3.97;2.73;;;;;;;;;;5052848;28;20617;-61
2023/07/14 01:27:04;;;;;;;3.83;3.53;;;;;;;;;;5052815;28;20852;-61
2023/07/14 01:29:31;;;;;;;3.90;3.60;;;;;;;;;;5052579;28;20422;-61
2023/07/14 01:31:57;;;;;;;3.27;3.07;;;;;;;;;;5052824;28;20420;-61
2023/07/14 01:34:28;;;;;;;8.90;3.30;;;;;;;;;;5052383;28;20438;-61
2023/07/14 01:36:58;;;;;;;2.83;2.70;;;;;;;;;;5052569;28;20786;-61
2023/07/14 01:39:24;;;;;;;11.77;3.60;;;;;;;;;;5052394;28;20470;-61
2023/07/14 01:41:53;;;;;;;3.60;3.30;;;;;;;;;;5052366;28;20750;-61
2023/07/14 01:44:20;;;;;;;6.80;2.93;;;;;;;;;;5052415;28;20442;-61
2023/07/14 01:46:47;;;;;;;6.53;3.97;;;;;;;;;;5052177;28;20417;-61
2023/07/14 01:49:28;;;;;;;3.20;2.90;;;;;;;;;;5052401;28;20447;-61
2023/07/14 01:51:57;;;;;;;3.10;2.90;;;;;;;;;;5052456;28;20438;-61
2023/07/14 01:54:26;;;;;;;4.80;3.40;;;;;;;;;;5051928;28;20443;-61
2023/07/14 01:56:53;;;;;;;3.50;2.80;;;;;;;;;;5052187;28;20442;-61
2023/07/14 01:59:26;;;;;;;4.20;3.27;;;;;;;;;;5034254;28;20940;-61
2023/07/14 02:01:52;;;;;;;4.50;2.90;;;;;;;;;;5052273;28;20412;-61
2023/07/14 02:04:26;;;;;;;4.43;2.93;;;;;;;;;;5052116;28;20414;-61
2023/07/14 02:06:53;;;;;;;3.93;3.73;;;;;;;;;;5052335;28;20411;-61
2023/07/14 02:09:21;;;;;;;8.63;2.83;;;;;;;;;;5036892;28;20533;-61
2023/07/14 02:11:49;;;;;;;4.77;3.17;;;;;;;;;;5031119;28;20435;-61
2023/07/14 02:14:17;;;;;;;2.70;2.50;;;;;;;;;;5032460;28;20461;-61
2023/07/14 02:16:47;;;;;;;3.50;3.30;;;;;;;;;;5031427;28;20436;-60
2023/07/14 02:19:16;;;;;;;3.20;2.90;;;;;;;;;;5032444;28;20824;-61
2023/07/14 02:21:43;;;;;;;6.27;3.00;;;;;;;;;;5032349;28;20395;-60
2023/07/14 02:24:14;;;;;;;5.07;3.40;;;;;;;;;;5032131;28;20426;-60
2023/07/14 02:26:41;;;;;;;3.00;2.80;;;;;;;;;;5032084;28;20461;-60
2023/07/14 02:29:10;;;;;;;3.03;2.70;;;;;;;;;;5032191;28;20416;-60
2023/07/14 02:31:43;;;;;;;3.07;2.73;;;;;;;;;;5032136;28;20419;-60
2023/07/14 02:34:13;;;;;;;3.03;2.87;;;;;;;;;;5032046;28;20411;-60
2023/07/14 02:36:54;;;;;;;5.23;2.80;;;;;;;;;;5032119;28;20424;-60
2023/07/14 02:39:23;;;;;;;5.93;2.87;;;;;;;;;;5031897;28;20609;-60
2023/07/14 02:41:51;;;;;;;4.33;3.00;;;;;;;;;;5032316;28;20748;-61
2023/07/14 02:44:19;;;;;;;29.23;17.10;;;;;;;;;;5031869;28;20424;-61
2023/07/14 02:46:48;;;;;;;5.57;4.90;;;;;;;;;;5032028;28;20920;-61
2023/07/14 02:49:17;;;;;;;3.10;2.90;;;;;;;;;;5032005;28;20419;-61
2023/07/14 02:51:45;;;;;;;4.73;4.33;;;;;;;;;;5031885;28;20435;-61
2023/07/14 02:54:11;;;;;;;10.27;4.90;;;;;;;;;;5032023;28;20418;-61
2023/07/14 02:56:37;;;;;;;13.23;7.67;;;;;;;;;;5031793;28;20550;-61
2023/07/14 02:59:04;;;;;;;6.57;2.80;;;;;;;;;;5033733;28;20556;-61
2023/07/14 03:01:32;;;;;;;3.93;3.63;;;;;;;;;;5035553;28;20415;-59
2023/07/14 03:03:59;;;;;;;3.03;2.90;;;;;;;;;;5034514;28;20447;-60
2023/07/14 03:06:25;;;;;;;7.33;3.60;;;;;;;;;;5035635;28;20504;-60
2023/07/14 03:08:51;;;;;;;3.23;3.00;;;;;;;;;;5034780;28;20858;-60
2023/07/14 03:11:16;;;;;;;6.33;3.27;;;;;;;;;;5034231;28;20454;-60
2023/07/14 03:13:43;;;;;;;3.70;3.10;;;;;;;;;;5035422;28;20426;-60
2023/07/14 03:16:09;;;;;;;3.57;3.30;;;;;;;;;;5035263;28;20438;-60
2023/07/14 03:18:35;;;;;;;4.43;3.43;;;;;;;;;;5035217;28;20474;-60
2023/07/14 03:21:03;;;;;;;5.07;3.43;;;;;;;;;;5033919;28;20478;-60
2023/07/14 03:23:29;;;;;;;9.37;3.40;;;;;;;;;;5035337;28;20932;-60
2023/07/14 03:26:00;;;;;;;2.97;2.80;;;;;;;;;;5033817;28;20808;-60
2023/07/14 03:28:26;;;;;;;3.67;3.37;;;;;;;;;;5035274;28;20410;-59
2023/07/14 03:30:52;;;;;;;4.10;3.70;;;;;;;;;;5034655;28;20454;-60
2023/07/14 03:33:21;;;;;;;7.77;3.20;;;;;;;;;;5035047;28;20442;-60
2023/07/14 03:35:47;;;;;;;5.47;2.50;;;;;;;;;;5033610;28;20524;-60
2023/07/14 03:38:13;;;;;;;3.03;2.90;;;;;;;;;;5035081;28;20426;-60
2023/07/14 03:40:39;;;;;;;2.73;2.50;;;;;;;;;;5034811;28;20475;-60
2023/07/14 03:43:08;;;;;;;2.87;2.73;;;;;;;;;;5035010;28;20416;-60
2023/07/14 03:45:36;;;;;;;4.10;3.20;;;;;;;;;;5034941;28;20443;-60
2023/07/14 03:48:03;;;;;;;7.27;3.57;;;;;;;;;;5034635;28;20904;-60
2023/07/14 03:50:32;;;;;;;4.97;3.10;;;;;;;;;;5034831;28;20856;-60
2023/07/14 03:53:00;;;;;;;3.10;2.90;;;;;;;;;;5034695;28;20427;-60
2023/07/14 03:55:26;;;;;;;4.50;3.90;;;;;;;;;;5033308;28;20436;-60
2023/07/14 03:57:52;;;;;;;11.13;8.60;;;;;;;;;;5033435;28;20514;-60
2023/07/14 04:00:18;;;;;;;10.40;2.93;;;;;;;;;;5034731;28;20459;-60
2023/07/14 04:02:45;;;;;;;3.73;3.57;;;;;;;;;;5034485;28;20471;-60
2023/07/14 04:05:12;;;;;;;6.17;3.67;;;;;;;;;;5034431;28;20415;-61
2023/07/14 04:07:41;;;;;;;3.17;2.97;;;;;;;;;;5034556;28;20427;-61
2023/07/14 04:10:08;;;;;;;3.50;3.30;;;;;;;;;;5034150;28;20427;-61
2023/07/14 04:12:37;;;;;;;3.77;3.33;;;;;;;;;;5034274;28;20502;-61
2023/07/14 04:15:04;;;;;;;5.43;3.90;;;;;;;;;;5034186;28;20415;-61
2023/07/14 04:17:30;;;;;;;3.50;3.30;;;;;;;;;;5034292;28;20437;-61
2023/07/14 04:19:56;;;;;;;4.40;3.40;;;;;;;;;;5034102;28;20469;-61
2023/07/14 04:22:22;;;;;;;4.50;3.27;;;;;;;;;;5034090;28;20423;-61
2023/07/14 04:24:49;;;;;;;6.97;3.30;;;;;;;;;;5033864;28;20426;-61
2023/07/14 04:27:15;;;;;;;4.10;3.57;;;;;;;;;;5033885;28;20455;-61
2023/07/14 04:29:42;;;;;;;6.60;3.80;;;;;;;;;;5032780;28;20517;-61
2023/07/14 04:32:08;;;;;;;9.60;3.80;;;;;;;;;;5033946;28;20411;-60
2023/07/14 04:34:36;;;;;;;9.80;4.17;;;;;;;;;;5033944;28;20423;-61
2023/07/14 04:37:03;;;;;;;9.70;3.53;;;;;;;;;;5033878;28;20465;-59
2023/07/14 04:39:30;;;;;;;2.93;2.83;;;;;;;;;;5033644;28;20521;-59
2023/07/14 04:42:00;;;;;;;3.80;3.60;;;;;;;;;;5033801;28;20764;-59
2023/07/14 04:44:26;;;;;;;3.50;3.20;;;;;;;;;;5033669;28;20431;-59
2023/07/14 04:46:52;;;;;;;5.30;3.70;;;;;;;;;;5033477;28;20439;-59
2023/07/14 04:49:18;;;;;;;5.33;3.50;;;;;;;;;;5033467;28;20404;-61
2023/07/14 04:51:47;;;;;;;4.83;3.60;;;;;;;;;;5033413;28;20431;-61
2023/07/14 04:54:13;;;;;;;3.77;3.17;;;;;;;;;;5033482;28;20421;-61
2023/07/14 04:56:43;;;;;;;7.20;3.00;;;;;;;;;;5033513;28;20439;-61
2023/07/14 04:59:10;;;;;;;3.53;3.43;;;;;;;;;;5033240;28;20467;-60
2023/07/14 05:01:36;;;;;;;3.23;3.07;;;;;;;;;;5033199;28;20407;-60
2023/07/14 05:04:02;;;;;;;3.57;3.23;;;;;;;;;;5032926;28;20400;-60
2023/07/14 05:06:28;;;;;;;4.70;3.90;;;;;;;;;;5033241;28;20427;-60
2023/07/14 05:08:54;;;;;;;4.47;4.07;;;;;;;;;;5033216;28;20476;-60
2023/07/14 05:11:21;;;;;;;3.70;3.40;;;;;;;;;;5032830;28;20973;-60
2023/07/14 05:13:47;;;;;;;4.27;3.90;;;;;;;;;;5032708;28;20411;-60
2023/07/14 05:16:13;;;;;;;5.07;3.77;;;;;;;;;;5033018;28;20422;-60
2023/07/14 05:18:41;;;;;;;8.20;4.17;;;;;;;;;;5032526;28;20419;-60
2023/07/14 05:21:07;;;;;;;4.03;3.73;;;;;;;;;;5032200;28;20768;-60
2023/07/14 05:23:33;;;;;;;3.83;3.33;;;;;;;;;;5032756;28;20456;-59
2023/07/14 05:25:59;;;;;;;4.50;3.77;;;;;;;;;;5031353;28;20416;-60
2023/07/14 05:28:25;;;;;;;3.93;3.73;;;;;;;;;;5032733;28;20412;-60
2023/07/14 05:30:52;;;;;;;4.20;3.40;;;;;;;;;;5032515;28;20432;-60
2023/07/14 05:33:18;;;;;;;3.60;3.40;;;;;;;;;;5032553;28;20443;-60
2023/07/14 05:35:45;;;;;;;4.30;3.40;;;;;;;;;;5032639;28;20447;-60
2023/07/14 05:38:11;;;;;;;3.77;3.43;;;;;;;;;;5032618;28;20421;-60
2023/07/14 05:40:40;;;;;;;7.20;3.60;;;;;;;;;;5032430;28;20973;-60
2023/07/14 05:43:06;;;;;;;3.53;3.23;;;;;;;;;;5032843;28;20409;-60
2023/07/14 05:45:32;;;;;;;9.70;3.80;;;;;;;;;;5032502;28;20424;-60
2023/07/14 05:47:58;;;;;;;7.23;3.80;;;;;;;;;;5032472;28;20519;-60
2023/07/14 05:50:24;;;;;;;4.47;3.20;;;;;;;;;;5032521;28;20835;-60
2023/07/14 05:52:50;;;;;;;5.00;3.70;;;;;;;;;;5032395;28;20487;-60
2023/07/14 05:55:19;;;;;;;3.70;3.17;;;;;;;;;;5032405;28;20424;-60
2023/07/14 05:57:45;;;;;;;3.20;3.10;;;;;;;;;;5032292;28;20442;-60
2023/07/14 06:00:16;;;;;;;3.97;3.67;;;;;;;;;;5032428;28;20521;-60
2023/07/14 06:02:46;;;;;;;3.00;2.80;;;;;;;;;;5032150;28;20859;-60
2023/07/14 06:05:17;;;;;;;6.70;3.40;;;;;;;;;;5032101;28;20426;-60
2023/07/14 06:07:43;;;;;;;3.40;3.20;;;;;;;;;;5030797;28;20940;-60
2023/07/14 06:10:10;;;;;;;3.77;3.00;;;;;;;;;;5032262;28;20449;-60
2023/07/14 06:12:38;;;;;;;9.60;4.07;;;;;;;;;;5031983;28;20431;-61
2023/07/14 06:15:05;;;;;;;6.57;2.90;;;;;;;;;;5031956;28;20487;-60
2023/07/14 06:17:31;;;;;;;10.03;3.67;;;;;;;;;;5031939;28;20411;-60
2023/07/14 06:19:57;;;;;;;8.07;3.77;;;;;;;;;;5030956;28;20477;-61
2023/07/14 06:22:23;;;;;;;3.87;3.33;;;;;;;;;;5032162;28;20418;-61
2023/07/14 06:24:49;;;;;;;3.53;3.33;;;;;;;;;;5032052;28;20411;-61
2023/07/14 06:27:15;;;;;;;3.50;2.80;;;;;;;;;;5032204;28;20435;-61
2023/07/14 06:29:41;;;;;;;5.77;3.30;;;;;;;;;;5032219;28;20433;-61
2023/07/14 06:32:07;;;;;;;3.47;3.27;;;;;;;;;;5032173;28;20436;-60
2023/07/14 06:34:33;;;;;;;4.70;3.47;;;;;;;;;;5035111;28;20450;-58
2023/07/14 06:36:59;;;;;;;10.77;3.03;;;;;;;;;;5036087;28;20837;-58
2023/07/14 06:39:25;;;;;;;5.07;3.40;;;;;;;;;;5036007;28;20461;-58
2023/07/14 06:41:52;;;;;;;3.93;3.63;;;;;;;;;;5036073;28;20411;-58
2023/07/14 06:44:18;;;;;;;4.70;3.07;;;;;;;;;;5035770;28;20809;-60
2023/07/14 06:46:44;;;;;;;3.47;3.03;;;;;;;;;;5035658;28;20963;-60
2023/07/14 06:49:10;;;;;;;2.90;2.70;;;;;;;;;;5035784;28;20443;-61
2023/07/14 06:51:36;;;;;;;3.53;3.23;;;;;;;;;;5035599;28;20763;-60
2023/07/14 06:54:02;;;;;;;6.73;2.70;;;;;;;;;;5035524;28;20457;-60
2023/07/14 06:56:28;;;;;;;3.87;3.57;;;;;;;;;;5035767;28;20812;-60
2023/07/14 06:58:57;;;;;;;3.60;3.30;;;;;;;;;;5035666;28;20445;-61
2023/07/14 07:01:24;;;;;;;8.53;3.03;;;;;;;;;;5035623;28;20424;-60
2023/07/14 07:03:50;;;;;;;4.03;3.83;;;;;;;;;;5035568;28;20491;-60
2023/07/14 07:06:18;;;;;;;6.83;3.40;;;;;;;;;;5035698;28;20413;-59
2023/07/14 07:08:45;;;;;;;8.07;3.37;;;;;;;;;;5035459;28;20466;-58
2023/07/14 07:11:14;;;;;;;3.00;2.80;;;;;;;;;;5033938;28;20924;-58
2023/07/14 07:13:40;;;;;;;8.77;3.60;;;;;;;;;;5035125;28;20899;-60
2023/07/14 07:16:06;;;;;;;4.13;3.27;;;;;;;;;;5035522;28;20409;-60
2023/07/14 07:18:32;;;;;;;10.40;3.73;;;;;;;;;;5035276;28;20948;-60
2023/07/14 07:20:58;;;;;;;4.47;3.40;;;;;;;;;;5035199;28;20474;-60
2023/07/14 07:23:25;;;;;;;5.43;4.10;;;;;;;;;;5035216;28;20519;-60
2023/07/14 07:25:53;;;;;;;4.97;3.30;;;;;;;;;;5034745;28;20416;-60
2023/07/14 07:28:19;;;;;;;6.77;3.10;;;;;;;;;;5035155;28;20440;-61
2023/07/14 07:30:45;;;;;;;9.60;3.60;;;;;;;;;;5035187;28;20884;-61
2023/07/14 07:33:12;;;;;;;6.03;3.33;;;;;;;;;;5035023;28;20441;-61
2023/07/14 07:35:39;;;;;;;7.20;3.63;;;;;;;;;;5034671;28;20456;-61
2023/07/14 07:38:05;;;;;;;7.33;3.70;;;;;;;;;;5034942;28;20808;-61
2023/07/14 07:40:31;;;;;;;3.63;3.47;;;;;;;;;;5034735;28;20905;-61
2023/07/14 07:42:57;;;;;;;5.07;3.53;;;;;;;;;;5034769;28;20439;-61
2023/07/14 07:45:23;;;;;;;3.77;2.87;;;;;;;;;;5034358;28;20544;-61
2023/07/14 07:47:49;;;;;;;7.97;3.47;;;;;;;;;;5034693;28;20821;-61
2023/07/14 07:50:15;;;;;;;3.20;3.10;;;;;;;;;;5034694;28;20418;-61
2023/07/14 07:52:44;;;;;;;6.73;3.43;;;;;;;;;;5034432;28;20437;-61
2023/07/14 07:55:10;;;;;;;5.00;3.13;;;;;;;;;;5034579;28;20430;-61
2023/07/14 07:57:40;;;;;;;3.20;2.93;;;;;;;;;;5033973;28;20414;-62
2023/07/14 08:00:11;;;;;;;4.57;3.50;;;;;;;;;;5033045;28;20490;-61
2023/07/14 08:02:37;;;;;;;3.87;3.23;;;;;;;;;;5033018;28;20835;-57
2023/07/14 08:05:05;;;;;;;3.70;3.47;;;;;;;;;;5033198;28;20428;-57
2023/07/14 08:07:31;;;;;;;4.53;3.20;;;;;;;;;;5034546;28;20427;-57
2023/07/14 08:09:57;;;;;;;5.33;4.00;;;;;;;;;;5033069;28;20511;-57
2023/07/14 08:12:25;;;;;;;4.03;3.50;;;;;;;;;;5034261;28;20421;-57
2023/07/14 08:14:53;;;;;;;3.57;3.33;;;;;;;;;;5034082;28;20482;-57
2023/07/14 08:17:22;;;;;;;11.13;4.20;;;;;;;;;;5034414;28;20439;-57
2023/07/14 08:19:48;;;;;;;11.53;3.93;;;;;;;;;;5034600;28;20469;-58
2023/07/14 08:22:14;;;;;;;6.70;3.80;;;;;;;;;;5035102;28;20914;-57
2023/07/14 08:24:40;;;;;;;6.97;4.50;;;;;;;;;;5033887;28;20475;-58
2023/07/14 08:27:09;;;;;;;7.77;5.00;;;;;;;;;;5034062;28;20423;-58
2023/07/14 08:29:38;;;;;;;9.07;5.03;;;;;;;;;;5034323;28;20447;-58
2023/07/14 08:32:06;;;;;;;37.00;22.07;;;;;;;;;;5034355;28;20941;-57
2023/07/14 08:34:32;;;;;;;21.13;14.27;;;;;;;;;;5033965;28;20430;-58
2023/07/14 08:36:58;;;;;;;10.10;5.80;;;;;;;;;;5033943;28;20430;-57
2023/07/14 08:39:24;;;;;;;24.07;10.03;;;;;;;;;;5033875;28;20477;-58
2023/07/14 08:41:55;;;;;;;10.70;4.83;;;;;;;;;;5033820;28;20737;-58
2023/07/14 08:44:28;;;;;;;9.83;5.00;;;;;;;;;;5033757;28;20447;-57
2023/07/14 08:47:12;;;;;;;23.20;10.20;;;;;;;;;;5033604;28;20409;-57
2023/07/14 08:49:50;;;;;;;7.97;4.60;;;;;;;;;;5033856;28;20453;-58
2023/07/14 08:52:16;;;;;;;5.10;4.60;;;;;;;;;;5033860;28;20460;-57
2023/07/14 08:54:51;;;;;;;10.70;6.47;;;;;;;;;;5033519;28;21068;-57
2023/07/14 08:57:25;;;;;;;12.33;5.40;;;;;;;;;;5032709;28;20535;-57
2023/07/14 09:00:00;;;;;;;8.53;5.20;;;;;;;;;;5033170;28;20469;-58
2023/07/14 09:02:36;;;;;;;16.60;5.27;;;;;;;;;;5033363;28;20417;-57
2023/07/14 09:05:08;;;;;;;9.67;3.80;;;;;;;;;;5033205;28;20434;-58
2023/07/14 09:07:34;;;;;;;10.63;3.97;;;;;;;;;;5033165;28;20559;-57
2023/07/14 09:10:00;;;;;;;7.47;3.37;;;;;;;;;;5032821;28;20846;-58
2023/07/14 09:12:36;;;;;;;6.53;3.33;;;;;;;;;;5032082;28;20423;-57
2023/07/14 09:15:05;;;;;;;6.83;3.03;;;;;;;;;;5033201;28;20563;-57
2023/07/14 09:17:47;;;;;;;5.17;3.23;;;;;;;;;;5033108;28;20423;-58
2023/07/14 09:20:21;;;;;;;9.17;4.17;;;;;;;;;;5033117;28;20478;-58
2023/07/14 09:22:51;;;;;;;10.70;3.50;;;;;;;;;;5033366;28;20835;-58
2023/07/14 09:25:22;;;;;;;11.13;3.10;;;;;;;;;;5033670;28;20444;-58
2023/07/14 09:27:50;;;;;;;6.63;3.00;;;;;;;;;;5034009;28;20775;-58
2023/07/14 09:30:19;;;;;;;6.50;3.07;;;;;;;;;;5033690;28;20454;-57
2023/07/14 09:32:51;;;;;;;6.53;3.20;;;;;;;;;;5033157;28;20428;-57
2023/07/14 09:35:19;;;;;;;5.57;2.90;;;;;;;;;;5032788;28;20852;-57
2023/07/14 09:37:48;;;;;;;15.00;2.97;;;;;;;;;;5032677;28;20417;-58
2023/07/14 09:40:18;;;;;;;9.50;3.83;;;;;;;;;;5032707;28;20969;-58
2023/07/14 09:42:48;;;;;;;9.83;3.47;;;;;;;;;;5032391;28;20904;-57
2023/07/14 09:45:17;;;;;;;8.70;4.00;;;;;;;;;;5032522;28;20437;-58
2023/07/14 09:47:45;;;;;;;11.93;4.03;;;;;;;;;;5031883;28;20915;-58
2023/07/14 09:50:21;;;;;;;4.53;3.50;;;;;;;;;;5032027;28;20856;-58
2023/07/14 09:52:55;;;;;;;7.03;3.33;;;;;;;;;;5032122;28;20494;-58
2023/07/14 09:55:21;;;;;;;8.30;3.50;;;;;;;;;;5032368;28;20438;-58
2023/07/14 09:57:51;;;;;;;5.03;3.10;;;;;;;;;;5032457;28;21116;-58
2023/07/14 10:00:19;;;;;;;4.73;3.13;;;;;;;;;;5032544;28;20474;-58
2023/07/14 10:02:50;;;;;;;9.47;3.27;;;;;;;;;;5032610;28;20924;-58
2023/07/14 10:05:36;;;;;;;8.73;3.37;;;;;;;;;;5032311;28;20438;-58
2023/07/14 10:08:22;;;;;;;5.67;2.77;;;;;;;;;;5031747;28;20448;-58
2023/07/14 10:10:49;;;;;;;4.70;3.87;;;;;;;;;;5032448;28;20474;-58
2023/07/14 10:13:21;;;;;;;4.90;3.47;;;;;;;;;;5031980;28;20417;-58
2023/07/14 10:15:53;;;;;;;3.80;3.47;;;;;;;;;;5032119;28;20529;-58
2023/07/14 10:18:19;;;;;;;6.93;3.00;;;;;;;;;;5032445;28;20885;-58
2023/07/14 10:20:57;;;;;;;4.03;3.53;;;;;;;;;;5032238;28;20471;-58
2023/07/14 10:23:25;;;;;;;4.50;3.37;;;;;;;;;;5031914;28;20488;-58
2023/07/14 10:25:53;;;;;;;7.40;3.10;;;;;;;;;;5032108;28;20532;-58
2023/07/14 10:28:33;;;;;;;3.43;3.20;;;;;;;;;;5014472;28;20903;-58
2023/07/14 10:31:17;;;;;;;5.40;3.30;;;;;;;;;;5032083;28;20475;-58
2023/07/14 10:33:53;;;;;;;10.90;3.73;;;;;;;;;;5032104;28;20420;-58
2023/07/14 10:36:21;;;;;;;3.37;2.93;;;;;;;;;;5031739;28;20415;-58
2023/07/14 10:38:59;;;;;;;3.77;2.60;;;;;;;;;;5032060;28;20491;-58
2023/07/14 10:41:26;;;;;;;6.63;3.07;;;;;;;;;;5031731;28;20416;-58
2023/07/14 10:43:55;;;;;;;8.53;3.43;;;;;;;;;;5031708;28;20426;-58
2023/07/14 10:46:24;;;;;;;4.17;3.40;;;;;;;;;;5031999;28;20933;-58
2023/07/14 10:48:55;;;;;;;5.53;3.30;;;;;;;;;;5031828;28;20465;-58
2023/07/14 10:51:36;;;;;;;4.20;2.53;;;;;;;;;;5031940;28;20514;-58
2023/07/14 10:54:35;;;;;;;3.47;2.63;;;;;;;;;;5032058;28;20399;-58
2023/07/14 10:57:03;;;;;;;2.90;2.70;;;;;;;;;;5005991;28;20448;-58
2023/07/14 10:59:32;;;;;;;10.33;2.80;;;;;;;;;;5031302;28;20841;-57
2023/07/14 11:02:15;;;;;;;8.90;2.90;;;;;;;;;;5032026;28;20499;-58
2023/07/14 11:04:43;;;;;;;3.60;2.50;;;;;;;;;;5031740;28;20410;-58
2023/07/14 11:07:16;;;;;;;3.83;2.50;;;;;;;;;;5031872;28;20482;-57
2023/07/14 11:09:45;;;;;;;2.77;2.53;;;;;;;;;;5031716;28;20440;-58
2023/07/14 11:12:13;;;;;;;7.37;2.37;;;;;;;;;;5032112;28;20484;-57
2023/07/14 11:14:40;;;;;;;6.00;2.83;;;;;;;;;;5031670;28;20422;-58
2023/07/14 11:17:06;;;;;;;4.43;3.33;;;;;;;;;;5032208;28;20420;-57
2023/07/14 11:19:41;;;;;;;4.77;4.17;;;;;;;;;;5032857;28;20474;-58
2023/07/14 11:22:26;;;;;;;2.90;2.70;;;;;;;;;;5035166;28;20910;-58
2023/07/14 11:25:07;;;;;;;7.33;5.90;;;;;;;;;;5035302;28;20416;-59
2023/07/14 11:27:35;;;;;;;7.73;5.40;;;;;;;;;;5035249;28;20783;-59
2023/07/14 11:30:14;;;;;;;4.30;2.77;;;;;;;;;;5035206;28;20434;-58
2023/07/14 11:33:18;;;;;;;5.03;2.57;;;;;;;;;;5035661;28;20427;-58
2023/07/14 11:36:02;;;;;;;2.23;2.23;;;;;;;;;;4974170;28;20457;-58
2023/07/14 11:38:28;;;;;;;2.57;2.33;;;;;;;;;;5003418;28;20416;-58
2023/07/14 11:40:56;;;;;;;5.33;2.60;;;;;;;;;;5035580;28;20478;-58
2023/07/14 11:43:29;;;;;;;2.97;2.80;;;;;;;;;;5035085;28;20185;-58
2023/07/14 11:46:00;;;;;;;5.70;2.13;;;;;;;;;;5035092;28;20427;-58
2023/07/14 11:48:35;;;;;;;2.67;2.57;;;;;;;;;;5034745;28;20495;-58
2023/07/14 11:51:09;;;;;;;2.00;2.00;;;;;;;;;;5034777;28;20435;-58
2023/07/14 11:53:38;;;;;;;2.47;2.30;;;;;;;;;;5035041;28;20411;-57
2023/07/14 11:56:14;;;;;;;2.30;2.10;;;;;;;;;;5033203;28;20423;-58
2023/07/14 11:58:40;;;;;;;2.87;2.13;;;;;;;;;;5034289;28;20396;-58
2023/07/14 12:01:16;;;;;;;4.80;2.07;;;;;;;;;;5034621;28;20471;-58
2023/07/14 12:03:52;;;;;;;3.20;2.10;;;;;;;;;;5033882;28;20628;-58
2023/07/14 12:06:23;;;;;;;5.23;2.10;;;;;;;;;;5034214;28;20942;-58
2023/07/14 12:09:10;;;;;;;2.90;1.83;;;;;;;;;;5034216;28;20439;-58
2023/07/14 12:11:39;;;;;;;3.33;2.00;;;;;;;;;;5033938;28;20827;-58
2023/07/14 12:14:24;;;;;;;6.43;1.70;;;;;;;;;;5034309;28;20411;-57
2023/07/14 12:16:52;;;;;;;5.40;2.30;;;;;;;;;;5034271;28;20427;-58
2023/07/14 12:19:31;;;;;;;2.10;1.90;;;;;;;;;;5033939;28;20551;-58
2023/07/14 12:22:02;;;;;;;2.83;1.80;;;;;;;;;;5034217;28;20443;-58
2023/07/14 12:24:32;;;;;;;2.13;1.70;;;;;;;;;;5034272;28;20986;-58
2023/07/14 12:27:16;;;;;;;2.17;1.97;;;;;;;;;;5033658;28;20438;-58
2023/07/14 12:29:42;;;;;;;3.30;1.87;;;;;;;;;;5034031;28;20531;-57
2023/07/14 12:32:16;;;;;;;5.70;1.90;;;;;;;;;;5033617;28;20420;-58
2023/07/14 12:34:44;;;;;;;3.53;1.90;;;;;;;;;;5032666;28;20926;-58
2023/07/14 12:37:21;;;;;;;2.13;2.03;;;;;;;;;;5033700;28;20444;-58
2023/07/14 12:39:53;;;;;;;2.17;1.97;;;;;;;;;;5033874;28;20471;-58
2023/07/14 12:42:21;;;;;;;1.63;1.53;;;;;;;;;;5033968;28;20457;-58
2023/07/14 12:44:48;;;;;;;11.47;1.50;;;;;;;;;;5033509;28;20461;-58
2023/07/14 12:47:15;;;;;;;5.63;1.73;;;;;;;;;;5033684;28;20818;-58
2023/07/14 12:49:42;;;;;;;2.30;1.87;;;;;;;;;;5034192;28;20430;-58
2023/07/14 12:52:22;;;;;;;2.60;2.00;;;;;;;;;;5033497;28;20513;-57
2023/07/14 12:54:48;;;;;;;1.90;1.80;;;;;;;;;;5033543;28;20858;-59
2023/07/14 12:57:20;;;;;;;4.93;2.10;;;;;;;;;;5032984;28;20451;-58
2023/07/14 12:59:50;;;;;;;2.60;2.00;;;;;;;;;;5033317;28;20472;-58
2023/07/14 13:02:17;;;;;;;3.43;1.90;;;;;;;;;;5033387;28;20432;-58
2023/07/14 13:04:43;;;;;;;1.93;1.83;;;;;;;;;;5032871;28;20416;-58
2023/07/14 13:07:14;;;;;;;2.77;2.00;;;;;;;;;;5033278;28;20434;-58
2023/07/14 13:09:42;;;;;;;2.13;2.03;;;;;;;;;;5032920;28;20454;-58
2023/07/14 13:12:08;;;;;;;1.80;1.80;;;;;;;;;;5033029;28;20910;-58
2023/07/14 13:14:49;;;;;;;9.40;2.00;;;;;;;;;;5033319;28;20792;-58
2023/07/14 13:17:21;;;;;;;2.50;2.03;;;;;;;;;;5033013;28;20430;-58
2023/07/14 13:19:48;;;;;;;5.40;2.27;;;;;;;;;;5032127;28;20498;-59
2023/07/14 13:22:23;;;;;;;2.20;2.10;;;;;;;;;;5032992;28;20524;-59
2023/07/14 13:24:58;;;;;;;2.20;2.00;;;;;;;;;;5033003;28;20799;-58
2023/07/14 13:27:25;;;;;;;2.30;2.10;;;;;;;;;;5033195;28;20933;-60
2023/07/14 13:30:03;;;;;;;2.93;1.90;;;;;;;;;;5032591;28;20511;-59
2023/07/14 13:32:30;;;;;;;2.03;1.90;;;;;;;;;;5033029;28;20443;-60
2023/07/14 13:35:05;;;;;;;2.10;2.00;;;;;;;;;;5032292;28;20489;-59
2023/07/14 13:37:37;;;;;;;2.53;2.30;;;;;;;;;;5032878;28;20431;-60
2023/07/14 13:40:04;;;;;;;2.23;2.03;;;;;;;;;;5032514;28;20471;-59
2023/07/14 13:42:34;;;;;;;3.43;2.10;;;;;;;;;;5032480;28;20463;-59
2023/07/14 13:45:07;;;;;;;2.13;2.03;;;;;;;;;;5032560;28;20972;-59
2023/07/14 13:47:43;;;;;;;4.77;2.63;;;;;;;;;;5032820;28;20466;-56
2023/07/14 13:50:09;;;;;;;2.23;2.00;;;;;;;;;;5033126;28;20905;-59
2023/07/14 13:52:38;;;;;;;3.80;2.40;;;;;;;;;;5032602;28;20505;-60
2023/07/14 13:55:14;;;;;;;2.50;2.00;;;;;;;;;;5032491;28;20878;-59
2023/07/14 13:57:41;;;;;;;2.00;1.90;;;;;;;;;;5032809;28;20465;-58
2023/07/14 14:00:10;;;;;;;4.73;2.13;;;;;;;;;;5032016;28;20881;-60
2023/07/14 14:02:38;;;;;;;2.93;2.30;;;;;;;;;;5032512;28;20839;-59
2023/07/14 14:05:06;;;;;;;7.70;2.10;;;;;;;;;;5032341;28;20419;-59
2023/07/14 14:07:33;;;;;;;2.00;2.00;;;;;;;;;;5032637;28;20868;-57
2023/07/14 14:10:02;;;;;;;2.13;1.90;;;;;;;;;;5032227;28;20432;-58
2023/07/14 14:12:28;;;;;;;1.87;1.80;;;;;;;;;;5032271;28;20509;-58
2023/07/14 14:14:55;;;;;;;2.93;1.80;;;;;;;;;;5032230;28;20822;-58
2023/07/14 14:17:37;;;;;;;2.23;2.03;;;;;;;;;;5032668;28;20510;-58
2023/07/14 14:20:04;;;;;;;6.70;1.90;;;;;;;;;;5031989;28;20495;-58
2023/07/14 14:22:32;;;;;;;2.30;2.10;;;;;;;;;;5032113;28;20945;-58
2023/07/14 14:24:58;;;;;;;1.93;1.93;;;;;;;;;;5032239;28;20431;-59
2023/07/14 14:27:24;;;;;;;2.08;1.98;;;;;;;;;;5030999;28;20452;-58
2023/07/14 14:29:50;;;;;;;3.23;2.10;;;;;;;;;;5032039;28;20177;-58
2023/07/14 14:32:18;;;;;;;1.90;1.80;;;;;;;;;;5032015;28;20802;-58
2023/07/14 14:34:44;;;;;;;1.93;1.70;;;;;;;;;;5032053;28;20396;-58
2023/07/14 14:37:11;;;;;;;2.20;2.10;;;;;;;;;;5031854;28;20495;-58
2023/07/14 14:39:39;;;;;;;2.53;2.00;;;;;;;;;;5032152;28;20938;-58
2023/07/14 14:42:05;;;;;;;2.20;2.00;;;;;;;;;;5031954;28;20486;-57
2023/07/14 14:44:31;;;;;;;2.27;2.27;;;;;;;;;;5031939;28;20424;-57
2023/07/14 14:47:00;;;;;;;9.80;8.30;;;;;;;;;;5031925;28;20412;-57
2023/07/14 14:49:28;;;;;;;3.93;2.57;;;;;;;;;;5031620;28;20826;-57
2023/07/14 14:51:54;;;;;;;2.40;2.00;;;;;;;;;;5032008;28;20489;-57
2023/07/14 14:54:23;;;;;;;1.70;1.70;;;;;;;;;;5032842;28;20426;-57
2023/07/14 14:56:50;;;;;;;3.20;1.90;;;;;;;;;;5035802;28;20455;-58